Terminal Aerodrome Forecast
Issued by NWS

Home | Current Version | Previous Version | Text Only | Print | Product List | Glossary On
Versions: 1 2 3 4 5 6 7 8 9 10 11 12 13 14 15 16
000
FTAK31 PAFA 292334
TAFASC
TAF
PASC 292334Z 3000/3024 24011KT P6SM FEW060
     FM300600 22012KT P6SM -RA BKN050
     FM301200 24016G22KT 4SM -RA OVC015
     FM302200 25011KT P6SM -RA OVC050
     FM302300 25010KT P6SM OVC050=

USA.gov is the U.S. government's official web portal to all federal, state and local government web resources and services.